Time;durP1;ratioP1;P1;durP2;ratioP2;P2;SDS_P1;SDS_P2;PMS_P1;PMS_P2;Temp;Humidity;BMP_temperature;BMP_pressure;BME280_temperature;BME280_humidity;BME280_pressure;Samples;Min_cycle;Max_cycle;Signal;HPM_P1;HPM_P2
2023/05/02 00:00:41;;;;;;;15.68;7.82;;;9.60;99.90;;;;;;4955720;28;20042;-67
2023/05/02 00:03:07;;;;;;;17.92;8.32;;;9.60;99.90;;;;;;4971203;28;20046;-67
2023/05/02 00:05:33;;;;;;;16.75;7.72;;;9.50;99.90;;;;;;4954458;28;20453;-67
2023/05/02 00:07:59;;;;;;;23.10;8.38;;;9.50;99.90;;;;;;4952469;28;20616;-67
2023/05/02 00:10:25;;;;;;;20.45;8.55;;;9.60;99.90;;;;;;4954115;28;20485;-67
2023/05/02 00:12:51;;;;;;;15.07;7.10;;;9.60;99.90;;;;;;4937016;28;20058;-67
2023/05/02 00:15:16;;;;;;;12.88;5.93;;;9.50;99.90;;;;;;4953302;28;20234;-67
2023/05/02 00:17:42;;;;;;;12.73;5.72;;;9.50;99.90;;;;;;4985378;28;20552;-66
2023/05/02 00:20:10;;;;;;;12.10;5.70;;;9.50;99.90;;;;;;4953256;28;20042;-67
2023/05/02 00:22:36;;;;;;;10.45;5.03;;;9.50;99.90;;;;;;4985131;28;20054;-66
2023/05/02 00:25:02;;;;;;;15.60;5.78;;;9.50;99.90;;;;;;4968914;28;20100;-67
2023/05/02 00:27:29;;;;;;;15.27;7.00;;;9.50;99.90;;;;;;4972906;28;20107;-66
2023/05/02 00:29:55;;;;;;;14.50;6.53;;;9.60;99.90;;;;;;4952804;28;20097;-67
2023/05/02 00:32:21;;;;;;;17.02;6.43;;;9.50;99.90;;;;;;4955802;28;20042;-66
2023/05/02 00:34:46;;;;;;;14.77;7.15;;;9.50;99.90;;;;;;4969239;28;20137;-67
2023/05/02 00:37:12;;;;;;;16.00;7.43;;;9.50;99.90;;;;;;4954521;28;20047;-67
2023/05/02 00:39:38;;;;;;;13.75;7.25;;;9.60;99.90;;;;;;4938376;28;20038;-67
2023/05/02 00:42:04;;;;;;;15.35;6.47;;;9.60;99.90;;;;;;4954515;28;20070;-67
2023/05/02 00:44:30;;;;;;;15.57;3.83;;;9.60;99.90;;;;;;4936507;28;20507;-66
2023/05/02 00:46:56;;;;;;;15.70;3.65;;;9.50;99.90;;;;;;4939226;28;20132;-67
2023/05/02 00:49:22;;;;;;;13.90;3.78;;;9.60;99.90;;;;;;4969610;28;20123;-67
2023/05/02 00:51:48;;;;;;;13.63;3.55;;;9.50;99.90;;;;;;4966872;28;20117;-64
2023/05/02 00:54:13;;;;;;;18.42;3.92;;;9.50;99.90;;;;;;4952088;28;20042;-66
2023/05/02 00:56:39;;;;;;;17.27;3.35;;;9.50;99.90;;;;;;4967876;28;20030;-67
2023/05/02 00:59:07;;;;;;;20.83;4.43;;;9.40;99.90;;;;;;4998576;28;20191;-67
2023/05/02 01:02:03;;;;;;;17.88;3.88;;;9.40;99.90;;;;;;4967049;28;20074;-64
2023/05/02 01:04:41;;;;;;;21.23;4.00;;;9.30;99.90;;;;;;4968312;28;21333;-66
2023/05/02 01:07:41;;;;;;;19.70;4.72;;;9.30;99.90;;;;;;5001978;28;20051;-64
2023/05/02 01:10:07;;;;;;;21.48;4.05;;;9.20;99.90;;;;;;4965634;28;20587;-65
2023/05/02 01:12:47;;;;;;;23.27;4.25;;;9.20;36.50;;;;;;4966433;28;20039;-65
2023/05/02 01:15:18;;;;;;;19.38;3.30;;;9.10;9.60;;;;;;4997672;28;20130;-65
2023/05/02 01:17:45;;;;;;;20.65;3.42;;;9.10;1.00;;;;;;4998297;28;20038;-65
2023/05/02 01:20:18;;;;;;;17.75;2.85;;;9.00;1.00;;;;;;4950310;28;20140;-65
2023/05/02 01:22:46;;;;;;;20.60;3.00;;;8.90;1.00;;;;;;4998167;28;20046;-67
2023/05/02 01:25:32;;;;;;;15.40;2.10;;;8.80;99.90;;;;;;4965930;28;20057;-65
2023/05/02 01:28:11;;;;;;;27.88;2.92;;;8.80;99.90;;;;;;4981797;28;20144;-64
2023/05/02 01:30:41;;;;;;;23.00;2.90;;;8.70;99.90;;;;;;4965376;28;20073;-65
2023/05/02 01:33:10;;;;;;;20.15;2.03;;;8.70;99.90;;;;;;4966511;28;20434;-65
2023/05/02 01:35:37;;;;;;;16.98;2.17;;;8.80;99.90;;;;;;4997327;28;20080;-65
2023/05/02 01:38:05;;;;;;;15.77;2.60;;;8.70;99.90;;;;;;4980490;28;20046;-64
2023/05/02 01:40:33;;;;;;;24.50;3.40;;;8.60;99.90;;;;;;4965737;28;20134;-65
2023/05/02 01:43:03;;;;;;;26.58;3.05;;;8.60;99.90;;;;;;4966302;28;20051;-66
2023/05/02 01:45:31;;;;;;;26.42;3.97;;;8.60;99.90;;;;;;4976783;28;20039;-65
2023/05/02 01:47:59;;;;;;;22.00;3.65;;;8.50;99.90;;;;;;4965633;28;20045;-65
2023/05/02 01:50:26;;;;;;;24.55;3.97;;;8.40;99.90;;;;;;4963896;28;20054;-65
2023/05/02 01:52:53;;;;;;;16.05;3.33;;;8.40;99.90;;;;;;4980127;28;20125;-64
2023/05/02 01:55:19;;;;;;;14.93;2.67;;;8.40;99.90;;;;;;4963542;28;20061;-65
2023/05/02 01:57:46;;;;;;;25.00;3.65;;;8.40;99.90;;;;;;4967327;28;20047;-64
2023/05/02 02:00:15;;;;;;;27.23;4.32;;;8.40;99.90;;;;;;4999228;28;20058;-65
2023/05/02 02:02:43;;;;;;;30.23;4.78;;;8.40;99.90;;;;;;4967836;28;20057;-64
2023/05/02 02:05:13;;;;;;;29.90;4.93;;;8.40;99.90;;;;;;5002377;28;20077;-66
2023/05/02 02:07:38;;;;;;;32.33;5.03;;;8.40;99.90;;;;;;4965704;28;20042;-65
2023/05/02 02:10:05;;;;;;;28.13;4.43;;;8.40;99.90;;;;;;4967725;28;20133;-65
2023/05/02 02:12:37;;;;;;;27.40;3.95;;;8.30;14.20;;;;;;5001512;28;20042;-64
2023/05/02 02:15:09;;;;;;;21.55;3.75;;;8.30;22.50;;;;;;4998473;28;20106;-64
2023/05/02 02:18:07;;;;;;;24.95;4.05;;;8.30;1.00;;;;;;4967875;28;20049;-64
2023/05/02 02:20:35;;;;;;;20.88;3.72;;;8.20;1.00;;;;;;4948878;28;20568;-64
2023/05/02 02:23:05;;;;;;;17.15;2.53;;;8.20;1.00;;;;;;4965625;28;20125;-64
2023/05/02 02:25:32;;;;;;;20.70;3.13;;;8.20;1.00;;;;;;4997627;28;20529;-64
2023/05/02 02:27:59;;;;;;;19.20;2.95;;;8.10;1.00;;;;;;4965641;28;20050;-64
2023/05/02 02:30:25;;;;;;;18.45;2.65;;;8.10;99.90;;;;;;4965945;28;20050;-65
2023/05/02 02:32:51;;;;;;;21.02;3.20;;;8.10;1.00;;;;;;5001098;28;20386;-64
2023/05/02 02:35:17;;;;;;;20.10;3.38;;;8.10;1.00;;;;;;4947088;28;20046;-64
2023/05/02 02:38:01;;;;;;;18.00;2.78;;;8.00;99.90;;;;;;4966948;28;20056;-64
2023/05/02 02:40:50;;;;;;;18.23;3.08;;;8.10;99.90;;;;;;4975694;28;20042;-67
2023/05/02 02:43:30;;;;;;;15.90;2.85;;;8.00;99.90;;;;;;4964826;28;20381;-64
2023/05/02 02:46:14;;;;;;;18.65;2.85;;;8.00;99.90;;;;;;4980419;28;20479;-64
2023/05/02 02:49:01;;;;;;;16.27;2.22;;;8.00;99.90;;;;;;4966149;28;20034;-64
2023/05/02 02:51:44;;;;;;;19.50;2.90;;;8.00;99.90;;;;;;4999801;28;20069;-64
2023/05/02 02:54:30;;;;;;;18.00;2.40;;;8.00;99.90;;;;;;4976487;28;20058;-66
2023/05/02 02:57:16;;;;;;;20.25;2.17;;;8.00;99.90;;;;;;4996307;28;20674;-65
2023/05/02 02:59:56;;;;;;;18.90;2.38;;;8.00;99.90;;;;;;4998680;28;20047;-66
2023/05/02 03:02:25;;;;;;;15.77;2.25;;;7.90;99.90;;;;;;4981338;28;20035;-64
2023/05/02 03:04:53;;;;;;;17.75;2.30;;;7.90;99.90;;;;;;4977270;28;20052;-64
2023/05/02 03:07:19;;;;;;;17.20;2.75;;;7.90;99.90;;;;;;4998190;28;20102;-63
2023/05/02 03:09:47;;;;;;;20.80;2.60;;;7.80;99.90;;;;;;4965429;28;20142;-64
2023/05/02 03:12:13;;;;;;;20.42;2.33;;;7.80;99.90;;;;;;4982317;28;20492;-64
2023/05/02 03:14:39;;;;;;;14.48;2.22;;;7.80;99.90;;;;;;4964297;28;20203;-66
2023/05/02 03:17:07;;;;;;;16.30;1.80;;;7.80;99.90;;;;;;4978866;28;20054;-64
2023/05/02 03:19:33;;;;;;;13.98;1.90;;;7.70;99.90;;;;;;4948387;28;20573;-64
2023/05/02 03:21:59;;;;;;;17.08;1.92;;;7.70;99.90;;;;;;4947015;28;20121;-66
2023/05/02 03:24:26;;;;;;;12.82;1.17;;;7.70;99.90;;;;;;4963709;28;20045;-65
2023/05/02 03:26:58;;;;;;;11.63;1.40;;;7.70;99.90;;;;;;4964513;28;20534;-64
2023/05/02 03:29:25;;;;;;;14.23;1.95;;;7.70;99.90;;;;;;4949459;28;20050;-65
2023/05/02 03:32:09;;;;;;;11.35;1.70;;;7.70;99.90;;;;;;4997615;28;20437;-64
2023/05/02 03:34:37;;;;;;;10.73;1.65;;;7.60;99.90;;;;;;4963530;28;20039;-64
2023/05/02 03:37:03;;;;;;;13.32;1.60;;;7.60;99.90;;;;;;4980024;28;20043;-64
2023/05/02 03:39:28;;;;;;;12.50;1.30;;;7.60;99.90;;;;;;4965089;28;20050;-64
2023/05/02 03:41:54;;;;;;;13.70;1.40;;;7.50;99.90;;;;;;4982878;28;20043;-65
2023/05/02 03:44:20;;;;;;;7.88;1.10;;;7.50;99.90;;;;;;4980986;28;20047;-64
2023/05/02 03:46:47;;;;;;;13.98;1.70;;;7.50;99.90;;;;;;4950535;28;20046;-66
2023/05/02 03:49:12;;;;;;;10.50;0.82;;;7.50;99.90;;;;;;4980052;28;20501;-64
2023/05/02 03:51:39;;;;;;;8.63;1.00;;;7.50;99.90;;;;;;4981417;28;20046;-64
2023/05/02 03:54:05;;;;;;;8.18;1.15;;;7.50;99.90;;;;;;4949791;28;20051;-65
2023/05/02 03:56:30;;;;;;;13.85;1.13;;;7.50;99.90;;;;;;4949144;28;20037;-63
2023/05/02 03:58:56;;;;;;;9.02;1.10;;;7.50;99.90;;;;;;4963443;28;20239;-62
2023/05/02 04:01:22;;;;;;;12.57;1.02;;;7.50;99.90;;;;;;4996022;28;20097;-64
2023/05/02 04:03:49;;;;;;;9.43;0.90;;;7.50;99.90;;;;;;4963410;28;20564;-63
2023/05/02 04:06:14;;;;;;;11.25;1.05;;;7.40;99.90;;;;;;4995413;28;20038;-63
2023/05/02 04:08:40;;;;;;;10.85;1.00;;;7.40;99.90;;;;;;4964829;28;20536;-63
2023/05/02 04:11:06;;;;;;;10.70;1.40;;;7.40;99.90;;;;;;4964027;28;20482;-65
2023/05/02 04:13:32;;;;;;;7.55;0.70;;;7.40;99.90;;;;;;4947841;28;20046;-63
2023/05/02 04:15:57;;;;;;;6.15;0.55;;;7.40;99.90;;;;;;4963212;28;20045;-63
2023/05/02 04:18:23;;;;;;;7.60;0.80;;;7.40;99.90;;;;;;4961692;28;20058;-64
2023/05/02 04:20:49;;;;;;;8.82;0.77;;;7.40;99.90;;;;;;4962976;28;20049;-63
2023/05/02 04:23:16;;;;;;;5.35;0.65;;;7.40;99.90;;;;;;4994958;28;20120;-63
2023/05/02 04:25:55;;;;;;;11.65;0.90;;;7.40;99.90;;;;;;4947807;28;20050;-63
2023/05/02 04:28:21;;;;;;;15.70;1.55;;;7.30;99.90;;;;;;4995831;28;20050;-63
2023/05/02 04:30:50;;;;;;;16.00;2.20;;;7.30;99.90;;;;;;4998284;28;20500;-63
2023/05/02 04:33:17;;;;;;;12.50;1.33;;;7.30;99.90;;;;;;4960051;28;20505;-63
2023/05/02 04:35:43;;;;;;;14.25;1.38;;;7.30;99.90;;;;;;4963463;28;20043;-64
2023/05/02 04:38:09;;;;;;;9.80;1.40;;;7.30;99.90;;;;;;4996438;28;20097;-64
2023/05/02 04:40:35;;;;;;;18.25;1.80;;;7.30;99.90;;;;;;4964074;28;20347;-64
2023/05/02 04:43:01;;;;;;;10.13;1.15;;;7.30;99.90;;;;;;4963469;28;20058;-64
2023/05/02 04:45:28;;;;;;;13.90;1.63;;;7.20;99.90;;;;;;4997409;28;20055;-64
2023/05/02 04:47:56;;;;;;;11.90;1.33;;;7.30;99.90;;;;;;4994939;28;20109;-65
2023/05/02 04:50:21;;;;;;;10.23;1.25;;;7.20;99.90;;;;;;4948184;28;20202;-63
2023/05/02 04:52:47;;;;;;;8.82;1.10;;;7.20;79.70;;;;;;4940488;28;20043;-64
2023/05/02 04:55:13;;;;;;;13.15;1.85;;;7.10;20.40;;;;;;4936984;28;20042;-64
2023/05/02 04:57:38;;;;;;;10.90;1.30;;;7.10;1.00;;;;;;4951715;28;20194;-63
2023/05/02 05:00:05;;;;;;;9.20;1.35;;;7.10;1.00;;;;;;4935996;28;20102;-63
2023/05/02 05:02:31;;;;;;;12.82;1.17;;;7.00;1.00;;;;;;4953476;28;20043;-64
2023/05/02 05:04:56;;;;;;;6.25;1.02;;;7.10;1.00;;;;;;4952533;28;20046;-64
2023/05/02 05:07:22;;;;;;;10.77;1.42;;;7.00;1.00;;;;;;4954176;28;20295;-64
2023/05/02 05:09:48;;;;;;;10.80;1.17;;;7.10;99.90;;;;;;4951231;28;20716;-64
2023/05/02 05:12:13;;;;;;;14.20;1.83;;;7.10;1.00;;;;;;4968349;28;20054;-63
2023/05/02 05:14:39;;;;;;;10.80;1.45;;;7.10;1.00;;;;;;4953517;28;20043;-63
2023/05/02 05:17:05;;;;;;;12.93;1.52;;;7.10;1.00;;;;;;4984582;28;20182;-64
2023/05/02 05:19:30;;;;;;;9.85;1.33;;;7.00;99.90;;;;;;4936473;28;20046;-64
2023/05/02 05:21:56;;;;;;;9.10;1.45;;;7.00;1.00;;;;;;4935991;28;20500;-64
2023/05/02 05:24:22;;;;;;;6.97;1.10;;;7.10;99.90;;;;;;4931599;28;20046;-64
2023/05/02 05:26:47;;;;;;;8.00;1.33;;;7.10;99.90;;;;;;4954970;28;20031;-64
2023/05/02 05:29:14;;;;;;;11.65;0.90;;;7.10;99.90;;;;;;4952168;28;20139;-64
2023/05/02 05:31:40;;;;;;;9.85;1.58;;;7.20;99.90;;;;;;4950744;28;20069;-64
2023/05/02 05:34:06;;;;;;;11.45;1.38;;;7.20;99.90;;;;;;4952200;28;20703;-64
2023/05/02 05:36:32;;;;;;;7.20;1.20;;;7.30;99.90;;;;;;4954099;28;20125;-64
2023/05/02 05:38:58;;;;;;;10.32;1.42;;;7.30;99.90;;;;;;4952637;28;20078;-64
2023/05/02 05:41:23;;;;;;;6.60;0.98;;;7.30;99.90;;;;;;4952049;28;20470;-64
2023/05/02 05:43:49;;;;;;;12.00;1.17;;;7.40;99.90;;;;;;4949093;28;20046;-64
2023/05/02 05:46:15;;;;;;;9.13;1.05;;;7.40;99.90;;;;;;4951978;28;20505;-64
2023/05/02 05:48:40;;;;;;;12.68;1.17;;;7.40;99.90;;;;;;4952487;28;20042;-64
2023/05/02 05:51:06;;;;;;;12.43;1.48;;;7.40;99.90;;;;;;4954231;28;20035;-64
2023/05/02 05:53:32;;;;;;;9.23;1.38;;;7.50;99.90;;;;;;4938661;28;20046;-65
2023/05/02 05:55:58;;;;;;;10.45;1.63;;;7.40;99.90;;;;;;4967601;28;20136;-66
2023/05/02 05:58:24;;;;;;;11.18;1.40;;;7.50;99.90;;;;;;4969525;28;20050;-64
2023/05/02 06:00:50;;;;;;;10.32;1.65;;;7.60;99.90;;;;;;4952359;28;20041;-64
2023/05/02 06:03:16;;;;;;;14.07;2.03;;;7.60;99.90;;;;;;4950183;28;20062;-64
2023/05/02 06:05:41;;;;;;;14.50;2.03;;;7.60;99.90;;;;;;4936107;28;20038;-65
2023/05/02 06:08:07;;;;;;;11.25;1.58;;;7.60;99.90;;;;;;4983788;28;20066;-64
2023/05/02 06:10:33;;;;;;;11.18;1.70;;;7.70;1.00;;;;;;4938794;28;20046;-64
2023/05/02 06:12:59;;;;;;;12.15;1.73;;;7.70;99.90;;;;;;4952000;28;20229;-64
2023/05/02 06:15:25;;;;;;;9.98;1.60;;;7.70;99.90;;;;;;4968196;28;20200;-64
2023/05/02 06:17:51;;;;;;;9.27;1.65;;;7.80;99.90;;;;;;4968235;28;20041;-64
2023/05/02 06:20:17;;;;;;;12.18;2.20;;;7.80;99.90;;;;;;4935371;28;20038;-64
2023/05/02 06:22:42;;;;;;;11.60;1.63;;;7.90;99.90;;;;;;4985444;28;20629;-64
2023/05/02 06:25:08;;;;;;;12.85;1.40;;;8.00;99.90;;;;;;4951495;28;20209;-64
2023/05/02 06:27:34;;;;;;;9.18;1.63;;;7.90;99.90;;;;;;4950258;28;20138;-64
2023/05/02 06:30:00;;;;;;;12.10;1.77;;;7.90;99.90;;;;;;4965047;28;20030;-64
2023/05/02 06:32:32;;;;;;;8.57;1.45;;;8.00;99.90;;;;;;4986061;28;20039;-64
2023/05/02 06:34:58;;;;;;;11.65;1.90;;;8.00;99.90;;;;;;4985025;28;20039;-64
2023/05/02 06:37:23;;;;;;;12.50;1.98;;;8.00;99.90;;;;;;4968298;28;20042;-64
2023/05/02 06:39:49;;;;;;;12.05;1.90;;;8.00;99.90;;;;;;4949749;28;20100;-64
2023/05/02 06:42:15;;;;;;;10.88;1.95;;;8.00;99.90;;;;;;4936145;28;20129;-64
2023/05/02 06:44:40;;;;;;;13.13;2.20;;;8.10;99.90;;;;;;4987100;28;20175;-64
2023/05/02 06:47:06;;;;;;;13.25;1.95;;;8.10;99.90;;;;;;4938994;28;20050;-64
2023/05/02 06:49:32;;;;;;;10.02;1.42;;;8.20;99.90;;;;;;4988195;28;20517;-64
2023/05/02 06:51:58;;;;;;;10.75;1.50;;;8.20;99.90;;;;;;4986929;28;20049;-64
2023/05/02 06:54:25;;;;;;;8.43;1.33;;;8.20;99.90;;;;;;4954901;28;20390;-63
2023/05/02 06:56:51;;;;;;;12.65;1.67;;;8.30;99.90;;;;;;4954824;28;20039;-63
2023/05/02 06:59:16;;;;;;;12.85;1.85;;;8.40;99.90;;;;;;4954783;28;20046;-64
2023/05/02 07:01:43;;;;;;;10.48;1.45;;;8.40;99.90;;;;;;4934679;28;20472;-64
2023/05/02 07:04:09;;;;;;;8.90;1.02;;;8.40;99.90;;;;;;4937855;28;20042;-63
2023/05/02 07:06:35;;;;;;;12.73;1.75;;;8.50;99.90;;;;;;4955005;28;20129;-64
2023/05/02 07:09:00;;;;;;;8.90;1.15;;;8.60;99.90;;;;;;4954469;28;20421;-63
2023/05/02 07:11:26;;;;;;;8.80;0.95;;;8.80;99.90;;;;;;4957050;28;20773;-64
2023/05/02 07:13:53;;;;;;;8.05;1.30;;;8.80;99.90;;;;;;4969942;28;20046;-64
2023/05/02 07:16:19;;;;;;;7.22;0.75;;;9.00;99.90;;;;;;4955960;28;20129;-67
2023/05/02 07:18:44;;;;;;;9.07;0.82;;;9.00;99.90;;;;;;4954384;28;20045;-64
2023/05/02 07:21:11;;;;;;;9.52;0.90;;;9.00;99.90;;;;;;4954104;28;20439;-63
2023/05/02 07:23:36;;;;;;;8.55;1.02;;;9.10;99.90;;;;;;4956915;28;20576;-64
2023/05/02 07:26:04;;;;;;;9.68;1.13;;;8.80;99.90;;;;;;4939202;28;20042;-65
2023/05/02 07:28:29;;;;;;;7.80;1.00;;;8.70;99.90;;;;;;4939586;28;20043;-63
2023/05/02 07:30:56;;;;;;;6.70;1.27;;;8.70;99.90;;;;;;4954355;28;20069;-63
2023/05/02 07:33:23;;;;;;;6.57;0.80;;;8.80;99.90;;;;;;4956545;28;20035;-63
2023/05/02 07:35:49;;;;;;;10.50;0.82;;;9.20;99.90;;;;;;4986340;28;20042;-64
2023/05/02 07:38:15;;;;;;;8.05;0.95;;;9.30;99.90;;;;;;4954230;28;20070;-63
2023/05/02 07:40:41;;;;;;;7.93;0.88;;;9.60;99.90;;;;;;4956243;28;20129;-64
2023/05/02 07:43:06;;;;;;;6.85;1.15;;;9.60;99.90;;;;;;4986090;28;20082;-64
2023/05/02 07:45:32;;;;;;;6.78;0.70;;;9.70;99.90;;;;;;4954797;28;20763;-63
2023/05/02 07:47:58;;;;;;;6.50;0.60;;;9.70;99.90;;;;;;4937765;28;20446;-64
2023/05/02 07:50:24;;;;;;;13.02;1.17;;;9.90;99.90;;;;;;4951513;28;20050;-63
2023/05/02 07:52:50;;;;;;;7.50;0.60;;;10.10;99.90;;;;;;4939806;28;20070;-63
2023/05/02 07:55:16;;;;;;;8.07;1.00;;;10.00;99.90;;;;;;4955544;28;20122;-63
2023/05/02 07:57:42;;;;;;;6.68;0.70;;;10.00;99.90;;;;;;4933868;28;21247;-64
2023/05/02 08:00:09;;;;;;;5.40;0.60;;;9.90;99.90;;;;;;4923738;28;20496;-63
2023/05/02 08:02:38;;;;;;;7.68;0.73;;;10.00;99.90;;;;;;4954851;28;20042;-63
2023/05/02 08:05:06;;;;;;;8.75;1.08;;;10.00;99.90;;;;;;4950916;28;20044;-63
2023/05/02 08:08:09;;;;;;;7.72;0.63;;;10.10;99.90;;;;;;5002433;28;20053;-63
2023/05/02 08:10:56;;;;;;;4.97;0.50;;;9.80;99.90;;;;;;4959470;28;20109;-63
2023/05/02 08:13:22;;;;;;;6.00;0.47;;;9.70;99.90;;;;;;4953000;28;20512;-63
2023/05/02 08:15:47;;;;;;;5.75;0.50;;;9.60;99.90;;;;;;4954843;28;20654;-63
2023/05/02 08:18:13;;;;;;;2.42;0.30;;;9.80;99.90;;;;;;4955789;28;20069;-63
2023/05/02 08:20:39;;;;;;;5.40;0.40;;;9.80;99.90;;;;;;4937109;28;20622;-64
2023/05/02 08:23:05;;;;;;;4.28;0.32;;;9.80;99.90;;;;;;4952060;28;20898;-64
2023/05/02 08:25:31;;;;;;;4.30;0.30;;;9.50;99.90;;;;;;4939248;28;20042;-64
2023/05/02 08:27:56;;;;;;;7.03;0.52;;;9.40;99.90;;;;;;4937186;28;20043;-64
2023/05/02 08:30:22;;;;;;;5.97;0.45;;;9.60;99.90;;;;;;4939262;28;20494;-64
2023/05/02 08:32:48;;;;;;;5.00;0.47;;;9.90;99.90;;;;;;4952419;28;20089;-65
2023/05/02 08:35:13;;;;;;;5.20;0.40;;;10.20;99.90;;;;;;4938071;28;20041;-65
2023/05/02 08:37:39;;;;;;;7.00;0.55;;;10.20;99.90;;;;;;4967925;28;20030;-64
2023/05/02 08:40:10;;;;;;;7.10;0.47;;;10.40;99.90;;;;;;4936757;28;20046;-64
2023/05/02 08:42:36;;;;;;;4.07;0.40;;;10.20;99.90;;;;;;4937597;28;20062;-64
2023/05/02 08:45:03;;;;;;;4.75;0.30;;;10.40;99.90;;;;;;4937012;28;20058;-64
2023/05/02 08:47:30;;;;;;;4.72;0.35;;;10.40;99.90;;;;;;4953501;28;20050;-64
2023/05/02 08:49:57;;;;;;;6.25;0.50;;;10.70;99.90;;;;;;4983852;28;20043;-65
2023/05/02 08:52:24;;;;;;;5.18;0.55;;;11.10;99.90;;;;;;4952157;28;20473;-64
2023/05/02 08:54:51;;;;;;;3.38;0.40;;;11.10;99.10;;;;;;4953188;28;20437;-64
2023/05/02 08:57:17;;;;;;;4.85;0.40;;;10.70;89.30;;;;;;4952753;28;20384;-65
2023/05/02 08:59:42;;;;;;;6.15;0.47;;;11.10;92.70;;;;;;4967571;28;20050;-64
2023/05/02 09:02:29;;;;;;;3.60;0.32;;;11.20;67.90;;;;;;4953725;28;20038;-65
2023/05/02 09:05:02;;;;;;;3.35;0.40;;;11.20;55.50;;;;;;4968910;28;20436;-64
2023/05/02 09:07:28;;;;;;;4.90;0.40;;;11.90;77.60;;;;;;4984700;28;20046;-65
2023/05/02 09:09:54;;;;;;;4.80;0.40;;;12.00;52.90;;;;;;4964594;28;20510;-65
2023/05/02 09:12:29;;;;;;;3.22;0.30;;;12.50;90.50;;;;;;4953306;28;20050;-65
2023/05/02 09:15:16;;;;;;;5.32;0.30;;;12.70;64.30;;;;;;4932114;28;20129;-66
2023/05/02 09:17:47;;;;;;;5.00;0.40;;;12.20;33.20;;;;;;4952025;28;20050;-64
2023/05/02 09:20:15;;;;;;;4.05;0.50;;;11.60;62.90;;;;;;4984344;28;20042;-64
2023/05/02 09:22:51;;;;;;;3.22;0.40;;;11.30;95.80;;;;;;4952525;28;20042;-65
2023/05/02 09:25:19;;;;;;;4.75;0.40;;;11.10;99.90;;;;;;4952095;28;20047;-64
2023/05/02 09:27:52;;;;;;;5.15;0.73;;;10.70;99.90;;;;;;4952023;28;20034;-64
2023/05/02 09:30:22;;;;;;;5.10;0.68;;;10.70;99.90;;;;;;4936236;28;20035;-65
2023/05/02 09:32:55;;;;;;;3.97;0.65;;;10.30;99.90;;;;;;4953325;28;20041;-65
2023/05/02 09:35:24;;;;;;;5.00;0.50;;;10.00;99.90;;;;;;4937873;28;20134;-66
2023/05/02 09:37:56;;;;;;;5.80;0.50;;;10.20;99.90;;;;;;4968527;28;20038;-64
2023/05/02 09:40:23;;;;;;;6.72;0.70;;;10.00;99.90;;;;;;4983821;28;20079;-64
2023/05/02 09:42:49;;;;;;;9.70;0.70;;;9.90;99.90;;;;;;4985209;28;20049;-66
2023/05/02 09:45:23;;;;;;;6.10;0.75;;;9.60;99.90;;;;;;4935464;28;20242;-66
2023/05/02 09:47:50;;;;;;;5.22;0.80;;;9.50;99.90;;;;;;4937318;28;20134;-66
2023/05/02 09:50:36;;;;;;;6.18;0.40;;;9.50;99.90;;;;;;4950975;28;20046;-65
2023/05/02 09:53:03;;;;;;;4.25;0.57;;;9.40;99.90;;;;;;4936563;28;20401;-65
2023/05/02 09:55:30;;;;;;;5.82;0.45;;;9.50;99.90;;;;;;4983514;28;20097;-66
2023/05/02 09:57:55;;;;;;;3.40;0.20;;;10.00;99.90;;;;;;4952479;28;20050;-65
2023/05/02 10:00:21;;;;;;;3.45;0.20;;;10.40;99.90;;;;;;4951291;28;20050;-66
2023/05/02 10:02:50;;;;;;;2.05;0.25;;;10.70;99.90;;;;;;4935205;28;20445;-65
2023/05/02 10:05:16;;;;;;;2.38;0.30;;;10.70;99.90;;;;;;4936278;28;20676;-65
2023/05/02 10:07:46;;;;;;;3.03;0.20;;;10.90;99.90;;;;;;4983309;28;20051;-65
2023/05/02 10:10:16;;;;;;;2.03;0.20;;;11.20;99.90;;;;;;4963367;28;20062;-65
2023/05/02 10:12:42;;;;;;;5.10;0.40;;;12.40;99.90;;;;;;4953866;28;20046;-65
2023/05/02 10:15:13;;;;;;;4.07;0.38;;;13.10;99.90;;;;;;4935920;28;20596;-65
2023/05/02 10:17:46;;;;;;;3.83;0.32;;;12.30;99.90;;;;;;4954604;28;20039;-67
2023/05/02 10:20:17;;;;;;;3.33;0.22;;;11.70;91.00;;;;;;4990134;28;20496;-65
2023/05/02 10:22:46;;;;;;;3.95;0.30;;;11.60;97.90;;;;;;4973875;28;20043;-65
2023/05/02 10:25:12;;;;;;;5.57;0.30;;;11.70;97.70;;;;;;4956621;28;20603;-65
2023/05/02 10:27:38;;;;;;;4.57;0.30;;;12.50;99.90;;;;;;4939129;28;20076;-65
2023/05/02 10:30:05;;;;;;;3.90;0.30;;;12.10;99.90;;;;;;4954145;28;20058;-65
2023/05/02 10:32:33;;;;;;;4.80;0.30;;;11.80;95.40;;;;;;4956304;28;20064;-65
2023/05/02 10:35:04;;;;;;;4.38;0.35;;;11.70;99.90;;;;;;4955208;28;20047;-65
2023/05/02 10:37:35;;;;;;;4.43;0.30;;;12.00;99.90;;;;;;4955183;28;20137;-65
2023/05/02 10:40:01;;;;;;;3.28;0.20;;;11.80;94.40;;;;;;4983172;28;20562;-65
2023/05/02 10:42:28;;;;;;;2.72;0.20;;;12.60;97.20;;;;;;4957488;28;20129;-64
2023/05/02 10:44:54;;;;;;;3.70;0.20;;;13.90;99.90;;;;;;4954192;28;20042;-66
2023/05/02 10:47:26;;;;;;;4.47;0.30;;;14.10;81.40;;;;;;4986856;28;20046;-65
2023/05/02 10:50:00;;;;;;;4.13;0.30;;;13.50;44.30;;;;;;4954895;28;20150;-65
2023/05/02 10:52:31;;;;;;;7.10;0.40;;;13.20;57.70;;;;;;4966869;28;20137;-65
2023/05/02 10:55:20;;;;;;;3.90;0.32;;;13.20;72.40;;;;;;4955849;28;20349;-66
2023/05/02 10:58:01;;;;;;;3.90;0.30;;;13.10;99.90;;;;;;4955324;28;20129;-66
2023/05/02 11:00:29;;;;;;;5.55;0.30;;;12.40;65.30;;;;;;4955744;28;20235;-65
2023/05/02 11:02:55;;;;;;;3.88;0.30;;;12.50;78.50;;;;;;4971803;28;20172;-65
2023/05/02 11:05:23;;;;;;;3.55;0.20;;;12.30;55.70;;;;;;4956793;28;20046;-65
2023/05/02 11:07:49;;;;;;;4.10;0.30;;;12.80;92.10;;;;;;4971729;28;20341;-66
2023/05/02 11:10:20;;;;;;;3.05;0.25;;;12.40;99.90;;;;;;4954964;28;20055;-66
2023/05/02 11:12:51;;;;;;;3.45;0.40;;;12.60;99.90;;;;;;4954298;28;20042;-65
2023/05/02 11:15:28;;;;;;;2.53;0.30;;;12.40;99.90;;;;;;4956227;28;20042;-65
2023/05/02 11:18:06;;;;;;;3.33;0.40;;;12.40;99.90;;;;;;4954313;28;20105;-65
2023/05/02 11:20:32;;;;;;;2.97;0.30;;;12.20;99.90;;;;;;4969718;28;20053;-66
2023/05/02 11:23:24;;;;;;;4.05;0.30;;;12.10;99.90;;;;;;4970575;28;20042;-66
2023/05/02 11:25:55;;;;;;;2.92;0.30;;;12.10;99.90;;;;;;4986136;28;20038;-65
2023/05/02 11:28:36;;;;;;;2.63;0.38;;;11.90;99.90;;;;;;4953412;28;20193;-66
2023/05/02 11:31:03;;;;;;;3.42;0.63;;;11.50;99.90;;;;;;4969780;28;20046;-66
2023/05/02 11:33:29;;;;;;;5.35;0.52;;;11.50;99.90;;;;;;4954348;28;20051;-65
2023/05/02 11:35:58;;;;;;;2.95;0.40;;;11.60;99.90;;;;;;4955063;28;20042;-66
2023/05/02 11:38:25;;;;;;;5.10;0.32;;;11.60;99.90;;;;;;4942093;28;20035;-66
2023/05/02 11:40:53;;;;;;;3.90;0.30;;;11.70;99.90;;;;;;4940906;28;20043;-66
2023/05/02 11:43:23;;;;;;;5.22;0.40;;;11.90;99.90;;;;;;4955490;28;20058;-66
2023/05/02 11:45:50;;;;;;;2.00;0.20;;;11.90;99.90;;;;;;4953119;28;21116;-65
2023/05/02 11:48:17;;;;;;;3.20;0.20;;;12.60;99.90;;;;;;4950509;28;20051;-66
2023/05/02 11:50:49;;;;;;;2.17;0.20;;;13.10;99.90;;;;;;4989464;28;20073;-66
2023/05/02 11:53:21;;;;;;;3.33;0.30;;;13.10;99.90;;;;;;4952083;28;20114;-67
2023/05/02 11:55:51;;;;;;;1.60;0.20;;;12.60;70.20;;;;;;4953191;28;20039;-66
2023/05/02 11:58:21;;;;;;;3.97;0.10;;;12.60;48.90;;;;;;4985588;28;20041;-65
2023/05/02 12:00:48;;;;;;;3.78;0.10;;;12.00;1.00;;;;;;4964775;28;20051;-65
2023/05/02 12:03:29;;;;;;;2.67;0.10;;;12.50;6.10;;;;;;4954425;28;20047;-66
2023/05/02 12:05:55;;;;;;;2.75;0.20;;;13.10;25.50;;;;;;4952474;28;20042;-66
2023/05/02 12:08:24;;;;;;;4.55;0.30;;;14.00;56.70;;;;;;4985496;28;20069;-66
2023/05/02 12:10:51;;;;;;;2.95;0.28;;;14.80;49.00;;;;;;4985491;28;20495;-66
2023/05/02 12:13:17;;;;;;;2.85;0.20;;;14.90;50.10;;;;;;4987199;28;20066;-64
2023/05/02 12:15:43;;;;;;;2.30;0.20;;;14.00;8.70;;;;;;4951809;28;20521;-64
2023/05/02 12:18:09;;;;;;;4.68;0.22;;;13.20;24.10;;;;;;4942157;28;20049;-65
2023/05/02 12:20:37;;;;;;;3.15;0.13;;;13.60;67.10;;;;;;4971499;28;20684;-66
2023/05/02 12:23:05;;;;;;;2.97;0.28;;;13.40;20.10;;;;;;4953394;28;20038;-66
2023/05/02 12:25:36;;;;;;;4.32;0.28;;;13.20;27.20;;;;;;4936402;28;20517;-65
2023/05/02 12:28:02;;;;;;;2.03;0.20;;;13.80;42.50;;;;;;4952280;28;20275;-66
2023/05/02 12:30:29;;;;;;;3.15;0.22;;;13.60;8.00;;;;;;4953667;28;20873;-65
2023/05/02 12:33:02;;;;;;;3.63;0.20;;;13.00;8.80;;;;;;4952706;28;20058;-66
2023/05/02 12:35:29;;;;;;;1.60;0.10;;;13.20;17.20;;;;;;4955422;28;20046;-67
2023/05/02 12:38:17;;;;;;;2.15;0.20;;;13.10;29.50;;;;;;4936668;28;20505;-65
2023/05/02 12:40:53;;;;;;;3.72;0.20;;;12.70;10.00;;;;;;4985732;28;21047;-64
2023/05/02 12:43:20;;;;;;;0.90;0.10;;;13.30;39.20;;;;;;4955861;28;20050;-64
2023/05/02 12:45:47;;;;;;;3.55;0.28;;;12.90;35.40;;;;;;4936542;28;21357;-66
2023/05/02 12:48:26;;;;;;;3.28;0.30;;;12.60;37.00;;;;;;4953152;28;20428;-65
2023/05/02 12:50:54;;;;;;;1.90;0.20;;;12.30;61.60;;;;;;4951030;28;20074;-66
2023/05/02 12:53:42;;;;;;;2.28;0.50;;;12.50;99.90;;;;;;4967738;28;20050;-65
2023/05/02 12:56:09;;;;;;;3.05;0.20;;;12.60;90.10;;;;;;4951790;28;20058;-66
2023/05/02 12:58:46;;;;;;;2.97;0.22;;;13.70;99.90;;;;;;4968561;28;20214;-66